Gas City, IN

7:50 PM EST on February 26, 2015 (GMT -0500)
Delaware County-Johnson | Change Station
CLOSE
Current Station
Airport
Location: Muncie,
Elevation: 938 ft
Nearby Weather Stations

Elev 938 ft 40.23 °N, 85.39 °W | Updated 8 minutes ago

Overcast
Overcast
14 °F
Feels Like 8 °F
N
4
Wind Variable Wind from WNW

Today
High -- | Low -- °F
--% Chance of Precip.
Yesterday
High -- | Low -- °F
Precip. -- in
7:21 AM 6:30 PM
Waxing Gibbous, 63% visible
Pressure 30.27 in
Visibility 8.0 miles
Clouds Overcast 3200 ft
Windchill 8 °F
Dew Point 9 °F
Humidity 80%
Rainfall 0.00 in
Snow Depth Not available.
UV 0 out of 12
Pollen .30 out of 12
Air Quality Not available.
Flu Activity Not available.
SPECI KMIE 270042Z 29003KT 8SM OVC032 M10/M13 A3027 RMK AO2 SNB2356E38 P0000 T11001128

More Conditions Fewer Conditions

Pressure 30.27 in
Visibility 8.0 miles
Clouds Overcast 3200 ft
Windchill 8 °F
Dew Point 9 °F
Humidity 80%
Rainfall 0.00 in
Snow Depth Not available.
UV 0 out of 12
Pollen .30 out of 12
Air Quality Not available.
Flu Activity Not available.
SPECI KMIE 270042Z 29003KT 8SM OVC032 M10/M13 A3027 RMK AO2 SNB2356E38 P0000 T11001128

More Conditions Fewer Conditions

10-Day Weather Forecast

Almanac

Astronomy

Feb. 26, 2015 Rise Set
Actual Time
Civil Twilight
Nautical Twilight
Astronomical Twilight
Moon
Length of Visible Light
Length of Day
Tomorrow will be .
, % of the Moon is Illuminated

Today's Extremes

State Highs State Lows

Community

WunderPhotos

Upload Photos

1,800,548 photos uploaded!

WunderBlogs® & News

Nearby

Air Quality

  Air Quality AQ Index Pollutant
Not available.

Snow Depth

Station Depth Elevation

Earthquake Activity

City Distance Mag. Time & Date
Minimum magnitude displayed is 2.5.

Coastal Water Temperatures

Place Temperature

Nearby Weather Stations